Time;durP1;ratioP1;P1;durP2;ratioP2;P2;SDS_P1;SDS_P2;PMS_P1;PMS_P2;Temp;Humidity;BMP_temperature;BMP_pressure;BME280_temperature;BME280_humidity;BME280_pressure;Samples;Min_cycle;Max_cycle;Signal;HPM_P1;HPM_P2
2021/08/13 00:00:59;;;;;;;8.52;6.80;;;20.90;99.90;;;;;;4994031;28;20026;-75
2021/08/13 00:03:24;;;;;;;9.20;6.97;;;20.90;99.90;;;;;;4992721;28;20062;-75
2021/08/13 00:05:50;;;;;;;9.70;6.88;;;20.90;99.90;;;;;;4993928;28;20077;-74
2021/08/13 00:08:15;;;;;;;7.40;6.75;;;20.90;99.90;;;;;;4993973;28;20019;-73
2021/08/13 00:10:41;;;;;;;7.45;6.75;;;20.80;99.90;;;;;;4992783;28;20053;-72
2021/08/13 00:13:07;;;;;;;8.55;7.03;;;20.80;99.90;;;;;;4994507;28;20092;-74
2021/08/13 00:15:33;;;;;;;9.13;6.57;;;20.70;99.90;;;;;;4993970;28;20033;-76
2021/08/13 00:17:59;;;;;;;8.02;7.22;;;20.70;99.90;;;;;;4993719;28;20046;-74
2021/08/13 00:20:25;;;;;;;9.93;6.55;;;20.70;99.90;;;;;;4993703;28;20505;-76
2021/08/13 00:22:51;;;;;;;10.45;7.15;;;20.60;99.90;;;;;;4993912;28;20410;-75
2021/08/13 00:25:17;;;;;;;8.93;7.47;;;20.60;99.90;;;;;;4992246;28;20509;-74
2021/08/13 00:27:43;;;;;;;7.85;6.78;;;20.60;99.90;;;;;;4993646;28;20026;-74
2021/08/13 00:30:10;;;;;;;11.65;7.13;;;20.60;99.90;;;;;;4992314;28;20501;-74
2021/08/13 00:32:35;;;;;;;8.63;7.45;;;20.60;99.90;;;;;;4993632;28;20023;-75
2021/08/13 00:35:01;;;;;;;10.05;6.75;;;20.60;99.90;;;;;;4992142;28;20026;-73
2021/08/13 00:37:26;;;;;;;7.95;7.00;;;20.50;99.90;;;;;;4994183;28;20382;-73
2021/08/13 00:39:52;;;;;;;8.95;7.38;;;20.50;99.90;;;;;;4992415;28;20101;-74
2021/08/13 00:42:18;;;;;;;8.02;7.32;;;20.50;99.90;;;;;;4993233;28;20058;-75
2021/08/13 00:44:43;;;;;;;12.73;8.10;;;20.50;99.90;;;;;;4992015;28;20026;-73
2021/08/13 00:47:09;;;;;;;9.60;7.68;;;20.50;99.90;;;;;;4993067;28;20023;-73
2021/08/13 00:49:34;;;;;;;8.15;7.35;;;20.50;99.90;;;;;;4991936;28;20029;-75
2021/08/13 00:52:00;;;;;;;10.95;7.20;;;20.50;99.90;;;;;;4991902;28;20126;-73
2021/08/13 00:54:27;;;;;;;8.23;7.38;;;20.60;99.90;;;;;;4991857;28;20038;-74
2021/08/13 00:56:53;;;;;;;10.45;6.88;;;20.60;99.90;;;;;;4991856;28;20029;-74
2021/08/13 00:59:19;;;;;;;15.90;7.88;;;20.50;99.90;;;;;;4993121;28;20030;-74
2021/08/13 01:01:45;;;;;;;10.70;8.40;;;20.50;99.90;;;;;;4991726;28;20125;-75
2021/08/13 01:04:10;;;;;;;10.93;7.85;;;20.50;99.90;;;;;;4993193;28;20026;-74
2021/08/13 01:06:36;;;;;;;8.98;7.85;;;20.50;99.90;;;;;;4992864;28;20081;-74
2021/08/13 01:09:02;;;;;;;8.30;7.43;;;20.40;99.90;;;;;;4993234;28;20195;-74
2021/08/13 01:11:49;;;;;;;11.73;7.13;;;20.40;99.90;;;;;;4992862;28;20022;-74
2021/08/13 01:14:35;;;;;;;8.35;7.50;;;20.40;99.90;;;;;;4991477;28;20479;-74
2021/08/13 01:17:01;;;;;;;8.07;7.28;;;20.30;99.90;;;;;;4991367;28;20121;-74
2021/08/13 01:19:32;;;;;;;9.32;7.32;;;20.30;99.90;;;;;;4992753;28;20359;-74
2021/08/13 01:22:11;;;;;;;8.23;7.20;;;20.20;99.90;;;;;;4992865;28;20105;-74
2021/08/13 01:24:41;;;;;;;8.35;7.35;;;20.20;99.90;;;;;;4991416;28;20146;-74
2021/08/13 01:27:11;;;;;;;9.48;7.57;;;20.20;99.90;;;;;;4991379;28;20026;-75
2021/08/13 01:30:08;;;;;;;9.40;8.48;;;20.10;99.90;;;;;;4992734;28;20114;-75
2021/08/13 01:32:50;;;;;;;8.32;7.53;;;20.10;99.90;;;;;;4979704;28;20406;-74
2021/08/13 01:35:20;;;;;;;12.00;8.35;;;20.10;99.90;;;;;;4992944;28;20027;-74
2021/08/13 01:37:49;;;;;;;9.73;7.60;;;20.10;99.90;;;;;;4992543;28;20064;-74
2021/08/13 01:40:17;;;;;;;8.57;7.72;;;20.10;99.90;;;;;;4992501;28;20022;-75
2021/08/13 01:42:45;;;;;;;9.98;8.05;;;20.10;99.90;;;;;;4991123;28;20462;-74
2021/08/13 01:45:20;;;;;;;9.75;7.68;;;20.00;99.90;;;;;;4992360;28;20061;-74
2021/08/13 01:47:46;;;;;;;12.75;7.82;;;20.00;99.90;;;;;;4995719;28;20446;-75
2021/08/13 01:50:12;;;;;;;10.60;7.68;;;19.90;99.90;;;;;;4996487;28;20082;-74
2021/08/13 01:52:38;;;;;;;11.85;8.43;;;19.90;99.90;;;;;;4996444;28;20023;-74
2021/08/13 01:55:05;;;;;;;8.13;7.15;;;19.90;99.90;;;;;;4995144;28;20026;-75
2021/08/13 01:57:32;;;;;;;9.25;7.63;;;19.90;99.90;;;;;;4996216;28;20076;-74
2021/08/13 01:59:58;;;;;;;8.68;7.88;;;19.90;99.90;;;;;;4996175;28;20475;-74
2021/08/13 02:02:24;;;;;;;10.13;6.78;;;19.90;99.90;;;;;;4996312;28;20048;-75
2021/08/13 02:04:52;;;;;;;11.07;7.90;;;19.90;99.90;;;;;;4996055;28;20034;-74
2021/08/13 02:07:18;;;;;;;12.05;8.27;;;19.90;99.90;;;;;;4994783;28;20026;-74
2021/08/13 02:09:44;;;;;;;9.40;7.28;;;19.90;99.90;;;;;;4996033;28;20029;-74
2021/08/13 02:12:10;;;;;;;7.20;6.50;;;19.90;99.90;;;;;;4995907;28;20108;-75
2021/08/13 02:14:38;;;;;;;9.38;6.88;;;19.90;99.90;;;;;;4995923;28;20468;-74
2021/08/13 02:17:06;;;;;;;11.82;6.45;;;19.90;99.90;;;;;;4995603;28;20039;-75
2021/08/13 02:19:42;;;;;;;8.88;7.57;;;19.90;99.90;;;;;;4994508;28;20085;-75
2021/08/13 02:22:08;;;;;;;14.00;8.38;;;20.00;99.90;;;;;;4995821;28;20435;-74
2021/08/13 02:24:34;;;;;;;8.95;7.75;;;20.20;99.90;;;;;;4995680;28;20054;-75
2021/08/13 02:27:01;;;;;;;10.35;7.00;;;20.20;99.90;;;;;;4995376;28;20111;-75
2021/08/13 02:29:27;;;;;;;8.88;7.95;;;20.20;99.90;;;;;;4994390;28;20026;-75
2021/08/13 02:31:53;;;;;;;9.70;8.00;;;20.20;99.90;;;;;;4994407;28;20089;-74
2021/08/13 02:34:18;;;;;;;10.52;8.27;;;20.30;99.90;;;;;;4995652;28;20054;-74
2021/08/13 02:37:10;;;;;;;11.32;9.00;;;20.30;99.90;;;;;;4995383;28;20034;-75
2021/08/13 02:39:44;;;;;;;12.77;8.52;;;20.30;99.90;;;;;;4995374;28;20073;-74
2021/08/13 02:42:15;;;;;;;12.68;9.15;;;20.30;99.90;;;;;;4995426;28;20510;-74
2021/08/13 02:44:45;;;;;;;10.00;8.15;;;20.30;99.90;;;;;;4995506;28;20022;-74
2021/08/13 02:47:11;;;;;;;9.48;8.10;;;20.30;99.90;;;;;;4995375;28;20537;-75
2021/08/13 02:49:47;;;;;;;10.38;9.13;;;20.20;99.90;;;;;;4995346;28;20030;-74
2021/08/13 02:52:16;;;;;;;9.90;8.80;;;20.30;99.90;;;;;;4995286;28;20030;-75
2021/08/13 02:54:46;;;;;;;10.65;8.35;;;20.30;99.90;;;;;;4994011;28;20030;-73
2021/08/13 02:57:13;;;;;;;10.18;8.80;;;20.20;99.90;;;;;;4993593;28;20371;-74
2021/08/13 02:59:41;;;;;;;10.35;8.93;;;20.30;99.90;;;;;;4995126;28;20041;-74
2021/08/13 03:02:08;;;;;;;9.85;8.85;;;20.30;99.90;;;;;;4993665;28;20030;-74
2021/08/13 03:04:35;;;;;;;10.40;8.55;;;20.30;99.90;;;;;;4994934;28;20080;-74
2021/08/13 03:07:01;;;;;;;10.88;8.57;;;20.30;99.90;;;;;;4993523;28;20030;-74
2021/08/13 03:09:27;;;;;;;21.35;10.25;;;20.30;99.90;;;;;;4994985;28;20029;-74
2021/08/13 03:11:54;;;;;;;10.82;8.02;;;20.30;99.90;;;;;;4994892;28;20077;-75
2021/08/13 03:14:21;;;;;;;13.48;8.25;;;20.40;99.90;;;;;;4995024;28;20030;-74
2021/08/13 03:16:50;;;;;;;9.40;7.95;;;20.40;99.90;;;;;;4994598;28;20038;-74
2021/08/13 03:19:15;;;;;;;11.57;8.35;;;20.40;99.90;;;;;;4994693;28;20035;-74
2021/08/13 03:21:42;;;;;;;9.25;8.27;;;20.40;99.90;;;;;;4993647;28;20117;-75
2021/08/13 03:24:10;;;;;;;9.85;7.63;;;20.40;99.90;;;;;;4994801;28;20046;-75
2021/08/13 03:26:36;;;;;;;9.52;8.52;;;20.40;99.90;;;;;;4993223;28;20026;-75
2021/08/13 03:29:02;;;;;;;9.43;7.65;;;20.40;99.90;;;;;;4995566;28;20029;-75
2021/08/13 03:31:36;;;;;;;9.48;8.00;;;20.40;99.90;;;;;;4993321;28;20030;-74
2021/08/13 03:34:04;;;;;;;12.38;9.45;;;20.40;99.90;;;;;;4993512;28;20110;-74
2021/08/13 03:36:29;;;;;;;9.77;8.70;;;20.40;99.90;;;;;;4994527;28;20391;-75
2021/08/13 03:38:55;;;;;;;9.68;7.88;;;20.40;99.90;;;;;;4994592;28;20033;-74
2021/08/13 03:41:21;;;;;;;11.07;8.18;;;20.60;99.90;;;;;;4994430;28;20429;-74
2021/08/13 03:43:47;;;;;;;12.07;8.07;;;20.90;99.90;;;;;;4993448;28;20112;-75
2021/08/13 03:46:13;;;;;;;12.45;9.30;;;21.10;99.90;;;;;;4994483;28;20069;-74
2021/08/13 03:48:38;;;;;;;10.20;9.10;;;21.10;99.90;;;;;;4994228;28;20084;-75
2021/08/13 03:51:04;;;;;;;10.55;9.20;;;21.00;99.90;;;;;;4994410;28;20173;-75
2021/08/13 03:53:29;;;;;;;9.93;8.85;;;21.00;99.90;;;;;;4993206;28;20037;-74
2021/08/13 03:55:55;;;;;;;9.82;8.90;;;20.90;99.90;;;;;;4994287;28;20034;-73
2021/08/13 03:58:21;;;;;;;11.23;9.10;;;20.80;99.90;;;;;;4994683;28;20030;-75
2021/08/13 04:00:46;;;;;;;10.10;9.05;;;20.60;99.90;;;;;;4993256;28;20026;-74
2021/08/13 04:03:12;;;;;;;11.02;9.40;;;20.60;99.90;;;;;;4994593;28;20040;-74
2021/08/13 04:05:37;;;;;;;11.32;10.23;;;20.50;99.90;;;;;;4994647;28;20022;-75
2021/08/13 04:08:03;;;;;;;13.80;9.98;;;20.50;99.90;;;;;;4994713;28;20104;-74
2021/08/13 04:10:29;;;;;;;11.25;9.48;;;20.60;99.90;;;;;;4992728;28;20105;-74
2021/08/13 04:12:54;;;;;;;14.23;9.73;;;20.60;99.90;;;;;;4994401;28;20061;-76
2021/08/13 04:15:20;;;;;;;10.68;9.57;;;20.50;99.90;;;;;;4994183;28;20054;-76
2021/08/13 04:17:46;;;;;;;12.95;9.70;;;20.50;99.90;;;;;;4993682;28;20459;-74
2021/08/13 04:20:12;;;;;;;10.73;9.63;;;20.70;99.90;;;;;;4992531;28;20310;-75
2021/08/13 04:22:37;;;;;;;12.13;9.88;;;20.60;99.90;;;;;;4992343;28;20084;-74
2021/08/13 04:25:03;;;;;;;13.38;9.88;;;20.50;99.90;;;;;;4992272;28;20065;-75
2021/08/13 04:27:29;;;;;;;14.45;10.30;;;20.40;99.90;;;;;;4993494;28;20214;-74
2021/08/13 04:29:54;;;;;;;11.38;9.80;;;20.40;99.90;;;;;;4993467;28;20022;-73
2021/08/13 04:32:20;;;;;;;13.10;10.27;;;20.40;99.90;;;;;;4993523;28;20030;-74
2021/08/13 04:34:45;;;;;;;12.05;10.90;;;20.30;99.90;;;;;;4993698;28;20049;-75
2021/08/13 04:37:11;;;;;;;15.52;9.77;;;20.30;99.90;;;;;;4992514;28;20105;-74
2021/08/13 04:39:37;;;;;;;14.85;9.57;;;20.40;99.90;;;;;;4993404;28;20125;-74
2021/08/13 04:42:02;;;;;;;12.93;10.10;;;20.40;99.90;;;;;;4993364;28;20027;-73
2021/08/13 04:44:28;;;;;;;13.30;10.52;;;20.40;99.90;;;;;;4993425;28;20098;-74
2021/08/13 04:46:53;;;;;;;14.20;9.85;;;20.40;99.90;;;;;;4993310;28;20486;-74
2021/08/13 04:49:19;;;;;;;11.38;9.00;;;20.40;99.90;;;;;;4993223;28;20486;-74
2021/08/13 04:51:44;;;;;;;14.27;9.93;;;20.50;99.90;;;;;;4991880;28;20045;-73
2021/08/13 04:54:11;;;;;;;12.55;11.00;;;20.40;99.90;;;;;;4993135;28;20262;-75
2021/08/13 04:56:37;;;;;;;14.27;10.30;;;20.40;99.90;;;;;;4991697;28;20030;-75
2021/08/13 04:59:03;;;;;;;15.25;9.52;;;20.50;99.90;;;;;;4993165;28;20035;-76
2021/08/13 05:01:28;;;;;;;13.77;9.73;;;20.50;99.90;;;;;;4992971;28;20478;-74
2021/08/13 05:03:54;;;;;;;16.88;11.13;;;20.40;99.90;;;;;;4992993;28;20033;-74
2021/08/13 05:06:20;;;;;;;12.82;8.82;;;20.40;99.90;;;;;;4991397;28;20117;-75
2021/08/13 05:08:45;;;;;;;12.95;9.00;;;20.40;99.90;;;;;;4991485;28;20085;-75
2021/08/13 05:11:11;;;;;;;10.13;9.05;;;20.50;99.90;;;;;;4992846;28;20041;-74
2021/08/13 05:13:36;;;;;;;12.60;9.55;;;20.50;99.90;;;;;;4992787;28;20046;-75
2021/08/13 05:16:02;;;;;;;12.25;9.80;;;20.70;99.90;;;;;;4992636;28;20454;-73
2021/08/13 05:18:28;;;;;;;14.65;9.57;;;20.80;99.90;;;;;;4992666;28;20470;-75
2021/08/13 05:20:55;;;;;;;17.20;10.77;;;20.90;99.90;;;;;;4991787;28;20105;-74
2021/08/13 05:23:20;;;;;;;14.70;10.20;;;20.80;99.90;;;;;;4992538;28;20065;-75
2021/08/13 05:25:46;;;;;;;15.25;9.52;;;20.80;99.90;;;;;;4992787;28;20027;-75
2021/08/13 05:28:11;;;;;;;23.15;11.52;;;20.80;99.90;;;;;;4992705;28;20054;-75
2021/08/13 05:30:38;;;;;;;17.55;10.65;;;20.80;99.90;;;;;;4992810;28;20218;-74
2021/08/13 05:33:04;;;;;;;17.13;9.68;;;20.80;99.90;;;;;;4993340;28;20015;-75
2021/08/13 05:35:30;;;;;;;21.15;9.95;;;21.20;99.90;;;;;;4992589;28;20026;-76
2021/08/13 05:37:58;;;;;;;10.65;9.30;;;21.20;99.90;;;;;;4992730;28;20541;-74
2021/08/13 05:40:24;;;;;;;10.23;8.90;;;21.50;99.90;;;;;;4991247;28;20109;-74
2021/08/13 05:42:49;;;;;;;14.23;9.38;;;22.00;99.90;;;;;;4993457;28;20113;-74
2021/08/13 05:45:15;;;;;;;12.13;8.35;;;22.10;99.90;;;;;;4992635;28;20433;-75
2021/08/13 05:47:40;;;;;;;20.63;9.77;;;22.10;99.90;;;;;;4992317;28;20030;-75
2021/08/13 05:50:09;;;;;;;25.10;12.95;;;21.90;99.90;;;;;;4992724;28;20030;-75
2021/08/13 05:52:35;;;;;;;23.65;13.25;;;21.80;99.90;;;;;;4992556;28;20569;-74
2021/08/13 05:55:00;;;;;;;16.73;11.25;;;21.80;99.90;;;;;;4991314;28;20132;-75
2021/08/13 05:57:26;;;;;;;19.38;10.43;;;21.90;99.90;;;;;;4992246;28;20026;-75
2021/08/13 05:59:51;;;;;;;18.27;10.35;;;22.50;99.90;;;;;;4992892;28;20034;-75
2021/08/13 06:02:18;;;;;;;12.40;9.18;;;22.80;99.90;;;;;;4992715;28;20081;-74
2021/08/13 06:04:44;;;;;;;18.23;10.30;;;23.20;99.90;;;;;;4992262;28;20045;-75
2021/08/13 06:07:09;;;;;;;12.35;9.88;;;23.20;99.90;;;;;;4992035;28;20030;-74
2021/08/13 06:09:35;;;;;;;13.27;10.07;;;23.50;99.90;;;;;;4992369;28;20410;-75
2021/08/13 06:12:00;;;;;;;15.07;10.60;;;23.90;99.90;;;;;;4993623;28;20023;-73
2021/08/13 06:14:26;;;;;;;18.70;10.27;;;24.00;99.90;;;;;;4993067;28;20031;-75
2021/08/13 06:16:52;;;;;;;16.73;9.60;;;23.80;99.90;;;;;;4992856;28;20494;-75
2021/08/13 06:19:17;;;;;;;18.95;10.00;;;23.40;99.90;;;;;;4992639;28;20113;-74
2021/08/13 06:21:43;;;;;;;16.58;10.07;;;23.40;99.90;;;;;;4992805;28;20073;-74
2021/08/13 06:24:08;;;;;;;14.00;9.55;;;23.60;99.90;;;;;;4992496;28;20026;-74
2021/08/13 06:26:34;;;;;;;17.48;9.65;;;23.70;99.90;;;;;;4991958;28;20030;-75
2021/08/13 06:28:59;;;;;;;10.57;9.27;;;23.80;99.90;;;;;;4992737;28;20497;-76
2021/08/13 06:31:25;;;;;;;13.68;9.15;;;23.80;99.90;;;;;;4992351;28;20030;-75
2021/08/13 06:33:51;;;;;;;13.05;9.82;;;23.70;99.90;;;;;;4994734;28;20394;-75
2021/08/13 06:36:18;;;;;;;11.95;8.43;;;24.00;99.90;;;;;;4995737;28;20018;-74
2021/08/13 06:38:43;;;;;;;10.80;9.23;;;24.20;99.90;;;;;;4995659;28;20026;-75
2021/08/13 06:41:09;;;;;;;13.85;9.65;;;24.00;99.90;;;;;;4994166;28;20117;-76
2021/08/13 06:43:35;;;;;;;20.35;10.63;;;23.90;99.90;;;;;;4995744;28;20054;-76
2021/08/13 06:46:00;;;;;;;11.13;8.88;;;24.00;99.90;;;;;;4995481;28;20022;-74
2021/08/13 06:48:26;;;;;;;17.42;9.15;;;24.00;99.90;;;;;;4993969;28;20117;-75
2021/08/13 06:50:51;;;;;;;15.40;9.90;;;23.90;99.90;;;;;;4995277;28;20479;-74
2021/08/13 06:53:17;;;;;;;16.75;9.18;;;24.20;99.90;;;;;;4995393;28;20395;-74
2021/08/13 06:55:42;;;;;;;10.40;8.45;;;24.70;99.90;;;;;;4995268;28;20049;-75
2021/08/13 06:58:08;;;;;;;11.25;9.18;;;24.80;99.90;;;;;;4994996;28;20579;-74
2021/08/13 07:00:33;;;;;;;11.38;8.90;;;24.70;99.90;;;;;;4993928;28;20030;-75
2021/08/13 07:02:59;;;;;;;13.40;9.40;;;24.50;99.90;;;;;;4995472;28;20088;-75
2021/08/13 07:05:24;;;;;;;11.90;9.45;;;24.60;99.90;;;;;;4994907;28;20054;-75
2021/08/13 07:07:50;;;;;;;12.40;9.05;;;25.00;99.90;;;;;;4994901;28;20038;-74
2021/08/13 07:10:16;;;;;;;14.75;9.20;;;24.90;99.90;;;;;;4994911;28;20038;-75
2021/08/13 07:12:41;;;;;;;12.52;8.23;;;25.10;99.90;;;;;;4994835;28;20022;-75
2021/08/13 07:15:09;;;;;;;10.60;8.82;;;25.00;99.90;;;;;;4993693;28;20034;-75
2021/08/13 07:17:35;;;;;;;13.02;8.23;;;25.00;99.90;;;;;;4994859;28;20101;-75
2021/08/13 07:20:02;;;;;;;11.50;7.88;;;25.20;99.90;;;;;;4994837;28;20034;-74
2021/08/13 07:22:28;;;;;;;12.50;8.38;;;25.30;99.90;;;;;;4994753;28;20395;-74
2021/08/13 07:24:54;;;;;;;9.18;7.93;;;25.50;99.90;;;;;;4993366;28;20023;-75
2021/08/13 07:27:20;;;;;;;11.70;8.38;;;25.30;99.90;;;;;;4993547;28;20027;-75
2021/08/13 07:29:45;;;;;;;15.20;8.13;;;25.50;99.90;;;;;;4994938;28;20022;-73
2021/08/13 07:32:11;;;;;;;11.48;8.25;;;25.50;99.90;;;;;;4994623;28;20450;-73
2021/08/13 07:34:36;;;;;;;11.35;8.27;;;25.40;99.90;;;;;;4993189;28;20035;-73
2021/08/13 07:37:02;;;;;;;11.15;8.48;;;25.60;99.90;;;;;;4994356;28;20033;-72
2021/08/13 07:39:28;;;;;;;14.98;8.98;;;25.50;99.90;;;;;;4994350;28;20030;-72
2021/08/13 07:41:53;;;;;;;10.15;8.20;;;25.60;99.90;;;;;;4994223;28;20061;-72
2021/08/13 07:44:19;;;;;;;10.93;8.32;;;25.70;99.90;;;;;;4992163;28;20490;-72
2021/08/13 07:46:44;;;;;;;17.02;8.85;;;25.70;99.90;;;;;;4994505;28;20467;-72
2021/08/13 07:49:10;;;;;;;9.75;8.05;;;25.80;99.90;;;;;;4994364;28;20371;-77
2021/08/13 07:51:36;;;;;;;12.27;9.30;;;25.90;99.90;;;;;;4992898;28;20030;-74
2021/08/13 07:54:01;;;;;;;12.27;8.68;;;25.90;99.90;;;;;;4994286;28;20034;-72
2021/08/13 07:56:27;;;;;;;10.68;7.30;;;26.10;99.90;;;;;;4992676;28;20109;-73
2021/08/13 07:58:52;;;;;;;8.82;7.93;;;26.10;99.90;;;;;;4992713;28;20028;-73
2021/08/13 08:01:18;;;;;;;11.95;7.32;;;26.00;99.90;;;;;;4992722;28;20033;-73
2021/08/13 08:03:43;;;;;;;14.20;7.90;;;26.30;99.90;;;;;;4994424;28;20080;-73
2021/08/13 08:06:09;;;;;;;9.23;8.30;;;26.00;99.90;;;;;;4993837;28;20037;-73
2021/08/13 08:08:34;;;;;;;15.57;8.13;;;26.20;99.90;;;;;;4992543;28;20049;-72
2021/08/13 08:11:00;;;;;;;9.10;8.15;;;26.50;99.90;;;;;;4993769;28;20045;-72
2021/08/13 08:13:26;;;;;;;8.60;7.60;;;26.80;99.90;;;;;;4993709;28;20105;-73
2021/08/13 08:15:51;;;;;;;10.63;8.20;;;27.00;99.90;;;;;;4993486;28;20022;-72
2021/08/13 08:18:20;;;;;;;9.27;8.13;;;26.80;99.90;;;;;;4993716;28;20391;-73
2021/08/13 08:20:47;;;;;;;10.93;7.25;;;27.00;99.90;;;;;;4993691;28;20026;-73
2021/08/13 08:23:12;;;;;;;13.70;8.25;;;27.10;99.90;;;;;;4993566;28;20022;-74
2021/08/13 08:25:38;;;;;;;11.02;8.25;;;27.40;99.90;;;;;;4992270;28;20109;-72
2021/08/13 08:28:04;;;;;;;7.90;7.20;;;27.40;99.90;;;;;;4993341;28;20077;-72
2021/08/13 08:30:31;;;;;;;9.45;7.85;;;27.70;99.90;;;;;;4993654;28;20026;-73
2021/08/13 08:32:56;;;;;;;8.95;7.38;;;27.50;99.90;;;;;;4992270;28;20030;-74
2021/08/13 08:35:22;;;;;;;10.02;7.38;;;27.50;99.90;;;;;;4993269;28;20019;-72
2021/08/13 08:37:59;;;;;;;10.65;7.07;;;27.40;99.90;;;;;;4992015;28;20025;-73
2021/08/13 08:40:30;;;;;;;11.23;7.07;;;27.70;99.90;;;;;;4993154;28;20037;-72
2021/08/13 08:42:57;;;;;;;9.38;7.47;;;27.70;99.90;;;;;;4993412;28;20026;-73
2021/08/13 08:45:28;;;;;;;7.78;6.97;;;27.90;99.90;;;;;;4992184;28;20371;-72
2021/08/13 08:47:59;;;;;;;8.85;7.68;;;27.80;99.90;;;;;;4993049;28;20332;-73
2021/08/13 08:50:26;;;;;;;8.35;6.80;;;27.80;99.90;;;;;;4991703;28;20025;-73
2021/08/13 08:52:52;;;;;;;9.05;6.63;;;27.90;99.90;;;;;;4992886;28;20118;-73
2021/08/13 08:55:18;;;;;;;10.02;7.10;;;27.90;99.90;;;;;;4992703;28;20058;-73
2021/08/13 08:57:45;;;;;;;7.68;6.82;;;27.90;99.90;;;;;;4992988;28;20367;-73
2021/08/13 09:00:11;;;;;;;9.20;7.20;;;27.80;99.90;;;;;;4992980;28;20505;-73
2021/08/13 09:02:42;;;;;;;9.77;7.43;;;27.70;99.90;;;;;;4991717;28;20117;-74
2021/08/13 09:05:08;;;;;;;10.88;7.30;;;27.70;99.90;;;;;;4992914;28;20057;-74
2021/08/13 09:07:33;;;;;;;9.80;7.22;;;27.60;99.90;;;;;;4991308;28;20502;-74
2021/08/13 09:10:00;;;;;;;8.75;6.95;;;27.70;99.90;;;;;;4992894;28;20036;-73
2021/08/13 09:12:26;;;;;;;9.63;7.32;;;27.40;99.90;;;;;;4991378;28;20039;-74
2021/08/13 09:14:51;;;;;;;8.10;7.30;;;27.40;99.90;;;;;;4992837;28;20035;-72
2021/08/13 09:17:17;;;;;;;10.52;6.75;;;27.80;99.90;;;;;;4992551;28;20035;-72
2021/08/13 09:19:46;;;;;;;9.68;6.97;;;28.00;99.90;;;;;;4992586;28;20037;-74
2021/08/13 09:22:14;;;;;;;11.13;7.15;;;27.90;99.90;;;;;;4992796;28;20022;-73
2021/08/13 09:24:41;;;;;;;10.93;7.57;;;28.40;99.90;;;;;;4992599;28;20160;-72
2021/08/13 09:27:28;;;;;;;8.10;6.93;;;28.50;99.90;;;;;;4992647;28;20073;-72
2021/08/13 09:30:05;;;;;;;8.95;7.65;;;28.60;99.90;;;;;;4992698;28;20033;-73
2021/08/13 09:32:31;;;;;;;8.18;6.45;;;28.60;99.90;;;;;;4990967;28;20026;-74
2021/08/13 09:34:56;;;;;;;8.13;6.70;;;28.60;99.90;;;;;;4991074;28;20097;-73
2021/08/13 09:37:22;;;;;;;9.98;7.10;;;28.80;99.90;;;;;;4992561;28;20035;-73
2021/08/13 09:39:55;;;;;;;7.97;7.15;;;29.20;99.90;;;;;;4992574;28;20386;-73
2021/08/13 09:42:31;;;;;;;7.47;6.40;;;29.10;99.90;;;;;;4992395;28;20023;-72
2021/08/13 09:45:01;;;;;;;9.50;6.03;;;29.20;99.90;;;;;;4992764;28;20478;-73
2021/08/13 09:47:42;;;;;;;9.30;6.47;;;29.10;99.90;;;;;;4992471;28;20096;-74
2021/08/13 09:50:09;;;;;;;8.80;6.00;;;28.70;99.90;;;;;;4992431;28;20045;-73
2021/08/13 09:52:34;;;;;;;8.48;6.10;;;28.70;99.90;;;;;;4992447;28;20046;-73
2021/08/13 09:55:13;;;;;;;11.13;8.30;;;28.90;99.90;;;;;;4990801;28;20046;-72
2021/08/13 09:57:43;;;;;;;7.68;6.65;;;28.80;99.90;;;;;;4992380;28;20506;-73
2021/08/13 10:00:10;;;;;;;7.47;6.40;;;28.80;99.90;;;;;;4992271;28;20479;-72
2021/08/13 10:02:38;;;;;;;9.00;6.40;;;28.90;99.90;;;;;;4992427;28;20023;-72
2021/08/13 10:05:23;;;;;;;7.70;7.00;;;28.90;99.90;;;;;;4991040;28;20022;-72
2021/08/13 10:07:58;;;;;;;9.43;6.35;;;29.60;99.90;;;;;;4994049;28;20026;-74
2021/08/13 10:10:26;;;;;;;11.70;6.80;;;29.50;99.90;;;;;;4995064;28;20022;-74
2021/08/13 10:12:52;;;;;;;8.98;6.43;;;29.20;99.90;;;;;;4994777;28;20404;-74
2021/08/13 10:15:33;;;;;;;8.68;6.53;;;29.50;99.90;;;;;;4996097;28;20116;-74
2021/08/13 10:18:02;;;;;;;7.57;6.20;;;29.20;99.90;;;;;;4995948;28;20528;-73
2021/08/13 10:20:30;;;;;;;9.77;6.75;;;29.10;99.90;;;;;;4995936;28;20033;-73
2021/08/13 10:22:56;;;;;;;8.25;6.47;;;28.90;99.90;;;;;;4996265;28;20030;-72
2021/08/13 10:25:22;;;;;;;7.00;6.30;;;29.20;99.90;;;;;;4995967;28;20028;-73
2021/08/13 10:27:48;;;;;;;8.02;6.43;;;29.70;99.90;;;;;;4996073;28;20018;-73
2021/08/13 10:30:18;;;;;;;11.93;6.65;;;30.00;99.90;;;;;;4994787;28;20382;-73
2021/08/13 10:32:45;;;;;;;11.95;6.05;;;29.70;99.90;;;;;;4994414;28;20034;-75
2021/08/13 10:35:12;;;;;;;8.20;6.47;;;29.60;99.90;;;;;;4995605;28;20032;-73
2021/08/13 10:37:38;;;;;;;10.68;7.05;;;29.70;99.90;;;;;;4995760;28;20402;-73
2021/08/13 10:40:05;;;;;;;8.13;7.32;;;29.70;99.90;;;;;;4995704;28;20074;-73
2021/08/13 10:42:33;;;;;;;8.95;6.03;;;29.90;99.90;;;;;;4995747;28;20030;-72
2021/08/13 10:45:05;;;;;;;7.38;6.30;;;29.90;99.90;;;;;;4995324;28;20026;-74
2021/08/13 10:47:36;;;;;;;8.35;6.32;;;29.60;99.90;;;;;;4995472;28;20042;-73
2021/08/13 10:50:06;;;;;;;6.97;6.28;;;29.70;99.90;;;;;;4994341;28;20109;-73
2021/08/13 10:52:37;;;;;;;10.93;6.57;;;29.60;99.90;;;;;;4995656;28;20433;-74
2021/08/13 10:55:07;;;;;;;11.15;6.90;;;29.80;99.90;;;;;;4994152;28;20077;-73
2021/08/13 10:57:48;;;;;;;8.65;6.18;;;29.80;99.90;;;;;;4995200;28;20498;-73
2021/08/13 11:00:15;;;;;;;6.70;6.10;;;30.00;99.90;;;;;;4994029;28;20514;-73
2021/08/13 11:03:19;;;;;;;6.50;5.45;;;29.20;99.90;;;;;;4995199;28;20379;-74
2021/08/13 11:05:58;;;;;;;8.82;6.28;;;28.80;99.90;;;;;;4995055;28;20042;-73
2021/08/13 11:08:46;;;;;;;9.93;5.88;;;28.90;99.90;;;;;;4993692;28;20062;-73
2021/08/13 11:11:13;;;;;;;7.93;6.63;;;29.20;99.90;;;;;;4993806;28;20026;-72
2021/08/13 11:13:41;;;;;;;8.68;6.88;;;29.50;99.90;;;;;;4993961;28;20029;-74
2021/08/13 11:16:25;;;;;;;11.82;6.30;;;30.10;99.90;;;;;;4994769;28;20117;-74
2021/08/13 11:18:58;;;;;;;8.63;6.47;;;30.50;99.80;;;;;;4993800;28;20406;-72
2021/08/13 11:21:49;;;;;;;7.95;6.78;;;30.60;99.90;;;;;;4995059;28;20394;-73
2021/08/13 11:24:19;;;;;;;8.23;6.22;;;30.00;99.90;;;;;;4995112;28;20030;-74
2021/08/13 11:26:50;;;;;;;7.35;6.55;;;30.40;99.90;;;;;;4993696;28;20418;-73
2021/08/13 11:29:27;;;;;;;6.78;6.15;;;30.40;99.90;;;;;;4994959;28;20034;-73
2021/08/13 11:31:55;;;;;;;5.53;5.05;;;30.40;99.50;;;;;;4995039;28;20092;-73
2021/08/13 11:34:49;;;;;;;9.13;5.90;;;30.40;99.80;;;;;;4994910;28;20487;-74
2021/08/13 11:37:27;;;;;;;9.13;6.35;;;30.40;99.90;;;;;;4994656;28;20034;-73
2021/08/13 11:39:53;;;;;;;7.75;6.50;;;30.40;99.90;;;;;;4995032;28;20049;-72
2021/08/13 11:42:22;;;;;;;6.50;5.88;;;30.50;99.90;;;;;;4993564;28;20038;-72
2021/08/13 11:44:48;;;;;;;7.28;6.10;;;30.50;99.90;;;;;;4994757;28;20097;-73
2021/08/13 11:47:18;;;;;;;9.07;5.85;;;30.20;99.90;;;;;;4994629;28;20396;-74
2021/08/13 11:49:47;;;;;;;6.70;5.95;;;30.40;99.90;;;;;;4994511;28;20046;-73
2021/08/13 11:52:20;;;;;;;9.95;6.43;;;30.50;99.90;;;;;;4994416;28;20026;-73
2021/08/13 11:54:46;;;;;;;6.63;5.95;;;30.60;99.70;;;;;;4993308;28;20030;-74
2021/08/13 11:57:13;;;;;;;7.90;6.68;;;30.70;99.60;;;;;;4994274;28;20033;-74
2021/08/13 11:59:38;;;;;;;6.30;5.70;;;30.70;99.50;;;;;;4994154;28;20026;-73
2021/08/13 12:02:04;;;;;;;6.65;5.95;;;30.80;99.50;;;;;;4994635;28;20084;-75
2021/08/13 12:04:30;;;;;;;9.38;6.80;;;30.80;99.50;;;;;;4994072;28;20022;-73
2021/08/13 12:06:59;;;;;;;7.50;6.32;;;30.30;99.70;;;;;;4994248;28;20073;-74
2021/08/13 12:09:39;;;;;;;11.45;6.18;;;30.50;99.90;;;;;;4994405;28;20549;-73
2021/08/13 12:12:10;;;;;;;8.70;7.28;;;30.40;99.90;;;;;;4994244;28;20032;-73
2021/08/13 12:14:37;;;;;;;7.65;6.43;;;30.40;99.90;;;;;;4993987;28;20061;-74
2021/08/13 12:17:04;;;;;;;6.72;6.05;;;30.70;99.60;;;;;;4993776;28;20099;-74
2021/08/13 12:19:30;;;;;;;6.88;6.00;;;30.70;99.60;;;;;;4994103;28;20034;-73
2021/08/13 12:22:04;;;;;;;6.45;5.65;;;30.60;99.50;;;;;;4994131;28;20129;-72
2021/08/13 12:24:37;;;;;;;8.40;5.38;;;30.80;99.50;;;;;;4992803;28;20088;-74
2021/08/13 12:27:06;;;;;;;6.63;5.88;;;30.80;99.20;;;;;;4992465;28;20018;-72
2021/08/13 12:29:33;;;;;;;8.75;5.93;;;30.80;99.00;;;;;;4992532;28;20474;-74
2021/08/13 12:32:01;;;;;;;9.20;6.15;;;30.80;99.30;;;;;;4992413;28;20185;-75
2021/08/13 12:34:28;;;;;;;11.15;6.60;;;31.00;98.80;;;;;;4992858;28;20057;-73
2021/08/13 12:37:12;;;;;;;9.50;5.75;;;30.90;99.10;;;;;;4999230;28;20035;-74
2021/08/13 12:39:43;;;;;;;8.80;5.95;;;30.40;99.70;;;;;;5009961;28;20030;-73
2021/08/13 12:42:12;;;;;;;7.72;5.80;;;30.70;99.50;;;;;;5007512;28;20042;-72
2021/08/13 12:44:39;;;;;;;6.27;5.60;;;30.30;99.30;;;;;;5008239;28;20019;-73